createdAt,value
2023-04-23T00:00:13.650Z,20.00
2023-04-23T00:03:29.720Z,16.60
2023-04-23T00:05:59.665Z,16.40
2023-04-23T00:08:29.525Z,16.20
2023-04-23T00:10:58.199Z,15.50
2023-04-23T00:13:27.059Z,17.80
2023-04-23T00:15:55.921Z,15.70
2023-04-23T00:18:24.427Z,16.20
2023-04-23T00:20:52.990Z,14.40
2023-04-23T00:23:21.706Z,14.90
2023-04-23T00:25:50.111Z,15.80
2023-04-23T00:28:20.770Z,14.20
2023-04-23T00:30:50.536Z,15.40
2023-04-23T00:33:19.106Z,13.50
2023-04-23T00:35:47.588Z,14.40
2023-04-23T00:38:16.961Z,14.70
2023-04-23T00:40:45.437Z,14.40
2023-04-23T00:43:15.840Z,14.10
2023-04-23T00:45:44.609Z,13.30
2023-04-23T00:48:13.608Z,13.90
2023-04-23T00:50:42.399Z,13.30
2023-04-23T00:53:10.844Z,13.50
2023-04-23T00:55:39.343Z,12.30
2023-04-23T00:58:08.070Z,12.30
2023-04-23T01:01:20.155Z,14.20
2023-04-23T01:03:53.429Z,14.60
2023-04-23T01:06:25.441Z,14.90
2023-04-23T01:08:54.055Z,13.60
2023-04-23T01:11:22.692Z,12.80
2023-04-23T01:13:51.463Z,13.60
2023-04-23T01:16:20.439Z,12.90
2023-04-23T01:18:48.930Z,11.10
2023-04-23T01:21:18.495Z,12.60
2023-04-23T01:23:46.986Z,13.90
2023-04-23T01:26:15.541Z,13.30
2023-04-23T01:28:45.982Z,15.30
2023-04-23T01:31:14.881Z,12.60
2023-04-23T01:33:45.488Z,12.30
2023-04-23T01:36:14.496Z,12.30
2023-04-23T01:38:43.114Z,13.50
2023-04-23T01:41:11.960Z,12.50
2023-04-23T01:43:42.769Z,14.50
2023-04-23T01:46:11.940Z,16.60
2023-04-23T01:48:40.869Z,13.50
2023-04-23T01:51:09.681Z,12.90
2023-04-23T01:53:38.140Z,13.20
2023-04-23T01:56:07.565Z,13.80
2023-04-23T01:58:36.568Z,12.10
2023-04-23T02:01:05.028Z,11.40
2023-04-23T02:03:34.833Z,13.50
2023-04-23T02:06:05.360Z,14.10
2023-04-23T02:08:33.783Z,11.60
2023-04-23T02:11:02.206Z,12.70
2023-04-23T02:13:30.566Z,13.30
2023-04-23T02:15:59.474Z,12.20
2023-04-23T02:18:27.875Z,13.90
2023-04-23T02:20:57.761Z,13.60
2023-04-23T02:23:26.277Z,13.80
2023-04-23T02:25:54.660Z,13.90
2023-04-23T02:28:23.055Z,14.50
2023-04-23T02:30:51.566Z,15.70
2023-04-23T02:33:20.235Z,17.40
2023-04-23T02:35:48.650Z,12.50
2023-04-23T02:38:17.866Z,14.00
2023-04-23T02:40:46.327Z,14.60
2023-04-23T02:43:14.762Z,14.70
2023-04-23T02:45:43.202Z,13.40
2023-04-23T02:48:12.366Z,14.50
2023-04-23T02:50:41.310Z,13.60
2023-04-23T02:53:09.802Z,12.50
2023-04-23T02:55:38.182Z,10.90
2023-04-23T02:58:06.754Z,12.80
2023-04-23T03:00:35.719Z,11.80
2023-04-23T03:03:04.447Z,13.00
2023-04-23T03:05:33.123Z,11.30
2023-04-23T03:08:01.430Z,11.90
2023-04-23T03:10:29.875Z,12.70
2023-04-23T03:12:58.307Z,12.10
2023-04-23T03:15:27.690Z,13.80
2023-04-23T03:17:56.207Z,13.80
2023-04-23T03:20:24.750Z,11.50
2023-04-23T03:22:53.072Z,12.60
2023-04-23T03:25:23.982Z,15.30
2023-04-23T03:27:53.298Z,17.00
2023-04-23T03:30:21.723Z,12.90
2023-04-23T03:32:50.937Z,11.80
2023-04-23T03:35:19.501Z,13.10
2023-04-23T03:37:48.806Z,12.30
2023-04-23T03:40:18.083Z,10.80
2023-04-23T03:42:48.418Z,14.50
2023-04-23T03:45:17.666Z,10.60
2023-04-23T03:47:46.281Z,12.60
2023-04-23T03:50:15.200Z,11.80
2023-04-23T03:52:43.939Z,14.50
2023-04-23T03:55:17.497Z,14.40
2023-04-23T03:57:47.446Z,13.00
2023-04-23T04:00:26.867Z,18.80
2023-04-23T04:02:56.091Z,14.70
2023-04-23T04:05:27.365Z,11.50
2023-04-23T04:07:55.936Z,11.50
2023-04-23T04:10:26.905Z,11.10
2023-04-23T04:12:55.532Z,10.90
2023-04-23T04:15:24.071Z,10.20
2023-04-23T04:17:52.495Z,11.20
2023-04-23T04:20:20.962Z,11.40
2023-04-23T04:22:49.334Z,11.10
2023-04-23T04:25:17.833Z,10.90
2023-04-23T04:27:46.207Z,12.40
2023-04-23T04:30:14.879Z,11.70
2023-04-23T04:32:46.006Z,10.70
2023-04-23T04:35:14.689Z,13.30
2023-04-23T04:37:44.318Z,11.00
2023-04-23T04:40:13.004Z,14.50
2023-04-23T04:42:41.437Z,12.50
2023-04-23T04:45:10.682Z,11.50
2023-04-23T04:47:39.176Z,13.50
2023-04-23T04:50:08.182Z,12.60
2023-04-23T04:52:36.945Z,11.50
2023-04-23T04:55:07.474Z,12.90
2023-04-23T04:57:36.832Z,10.90
2023-04-23T05:00:22.797Z,13.10
2023-04-23T05:02:52.595Z,11.70
2023-04-23T05:05:23.035Z,12.20
2023-04-23T05:07:52.175Z,11.90
2023-04-23T05:10:20.906Z,11.30
2023-04-23T05:12:49.344Z,12.50
2023-04-23T05:15:17.937Z,10.40
2023-04-23T05:17:46.537Z,12.40
2023-04-23T05:20:15.522Z,12.80
2023-04-23T05:22:43.921Z,11.80
2023-04-23T05:25:12.449Z,10.40
2023-04-23T05:27:41.493Z,14.40
2023-04-23T05:30:11.268Z,12.10
2023-04-23T05:32:39.822Z,9.70
2023-04-23T05:35:08.720Z,11.20
2023-04-23T05:37:37.119Z,13.60
2023-04-23T05:40:07.491Z,11.40
2023-04-23T05:42:36.677Z,10.40
2023-04-23T05:45:07.318Z,10.50
2023-04-23T05:47:37.483Z,16.10
2023-04-23T05:50:07.377Z,12.70
2023-04-23T05:52:37.798Z,11.60
2023-04-23T05:55:08.382Z,12.20
2023-04-23T05:57:38.646Z,14.10
2023-04-23T06:00:12.032Z,12.00
2023-04-23T06:02:43.989Z,11.00
2023-04-23T06:05:12.779Z,12.10
2023-04-23T06:07:41.630Z,11.90
2023-04-23T06:10:11.115Z,12.60
2023-04-23T06:12:40.346Z,14.50
2023-04-23T06:15:09.802Z,13.70
2023-04-23T06:17:39.272Z,11.90
2023-04-23T06:20:09.340Z,13.00
2023-04-23T06:22:37.745Z,12.10
2023-04-23T06:25:06.485Z,12.10
2023-04-23T06:27:34.911Z,11.10
2023-04-23T06:30:08.504Z,11.60
2023-04-23T06:32:37.376Z,12.10
2023-04-23T06:35:07.744Z,12.90
2023-04-23T06:37:36.887Z,12.30
2023-04-23T06:40:06.940Z,12.50
2023-04-23T06:42:35.404Z,11.20
2023-04-23T06:45:32.282Z,13.50
2023-04-23T06:48:00.913Z,12.20
2023-04-23T06:50:29.609Z,14.70
2023-04-23T06:52:58.039Z,13.40
2023-04-23T06:55:26.500Z,13.20
2023-04-23T06:57:55.923Z,15.30
2023-04-23T07:00:24.807Z,11.80
2023-04-23T07:02:53.315Z,14.20
2023-04-23T07:05:21.860Z,11.50
2023-04-23T07:07:50.479Z,12.10
2023-04-23T07:10:19.314Z,13.60
2023-04-23T07:12:48.686Z,11.60
2023-04-23T07:15:17.213Z,13.20
2023-04-23T07:17:46.418Z,14.70
2023-04-23T07:20:14.814Z,11.50
2023-04-23T07:22:43.330Z,11.20
2023-04-23T07:25:11.798Z,10.90
2023-04-23T07:27:40.243Z,13.40
2023-04-23T07:30:09.738Z,13.60
2023-04-23T07:32:38.584Z,9.90
2023-04-23T07:35:07.655Z,9.30
2023-04-23T07:37:37.351Z,10.10
2023-04-23T07:40:08.709Z,10.90
2023-04-23T07:42:37.046Z,12.40
2023-04-23T07:45:06.185Z,11.20
2023-04-23T07:47:34.654Z,11.10
2023-04-23T07:50:03.210Z,13.30
2023-04-23T07:52:33.064Z,10.50
2023-04-23T07:55:02.841Z,10.90
2023-04-23T07:57:31.254Z,11.70
2023-04-23T07:59:59.635Z,14.30
2023-04-23T08:02:28.794Z,10.20
2023-04-23T08:04:57.565Z,9.70
2023-04-23T08:07:26.357Z,8.50
2023-04-23T08:09:54.833Z,11.90
2023-04-23T08:12:23.252Z,10.60
2023-04-23T08:14:51.717Z,10.20
2023-04-23T08:17:21.317Z,10.10
2023-04-23T08:19:49.696Z,9.70
2023-04-23T08:22:18.750Z,11.80
2023-04-23T08:24:48.288Z,10.10
2023-04-23T08:27:16.774Z,9.60
2023-04-23T08:29:45.215Z,11.30
2023-04-23T08:32:13.769Z,10.70
2023-04-23T08:34:42.310Z,8.60
2023-04-23T08:37:19.615Z,15.80
2023-04-23T08:39:51.977Z,8.90
2023-04-23T08:42:49.192Z,11.70
2023-04-23T08:45:18.650Z,8.00
2023-04-23T08:47:47.195Z,8.90
2023-04-23T08:50:20.551Z,10.40
2023-04-23T08:52:54.476Z,10.70
2023-04-23T08:55:24.362Z,10.50
2023-04-23T08:57:52.810Z,8.10
2023-04-23T09:00:26.369Z,10.20
2023-04-23T09:02:55.231Z,8.50
2023-04-23T09:05:24.021Z,9.90
2023-04-23T09:07:54.134Z,8.90
2023-04-23T09:10:22.850Z,10.10
2023-04-23T09:12:51.295Z,8.30
2023-04-23T09:15:19.925Z,8.70
2023-04-23T09:17:50.016Z,9.00
2023-04-23T09:20:18.585Z,9.20
2023-04-23T09:22:52.859Z,10.90
2023-04-23T09:25:23.822Z,9.30
2023-04-23T09:27:53.507Z,7.90
2023-04-23T09:30:23.690Z,9.30
2023-04-23T09:32:52.548Z,8.80
2023-04-23T09:35:21.438Z,8.00
2023-04-23T09:37:53.560Z,9.20
2023-04-23T09:40:25.101Z,9.50
2023-04-23T09:42:55.158Z,11.00
2023-04-23T09:45:26.084Z,10.10
2023-04-23T09:47:56.814Z,7.70
2023-04-23T09:50:34.543Z,10.00
2023-04-23T09:53:04.507Z,8.60
2023-04-23T09:55:43.146Z,8.00
2023-04-23T09:58:16.091Z,9.90
2023-04-23T10:00:44.688Z,8.30
2023-04-23T10:03:13.235Z,9.80
2023-04-23T10:08:16.751Z,7.50
2023-04-23T10:11:02.553Z,9.40
2023-04-23T10:13:37.076Z,9.30
2023-04-23T10:16:20.700Z,8.90
2023-04-23T10:18:53.475Z,7.40
2023-04-23T10:21:34.004Z,7.90
2023-04-23T10:24:40.889Z,10.50
2023-04-23T10:27:24.810Z,9.80
2023-04-23T10:30:06.762Z,8.80
2023-04-23T10:32:35.542Z,10.00
2023-04-23T10:35:06.045Z,10.40
2023-04-23T10:37:36.225Z,8.10
2023-04-23T10:40:11.778Z,7.90
2023-04-23T10:42:41.380Z,7.70
2023-04-23T10:45:24.180Z,8.30
2023-04-23T10:47:57.429Z,7.90
2023-04-23T10:50:31.410Z,9.00
2023-04-23T10:52:59.990Z,8.30
2023-04-23T10:55:30.966Z,7.80
2023-04-23T10:58:02.384Z,8.00
2023-04-23T11:00:51.870Z,8.00
2023-04-23T11:03:34.871Z,7.70
2023-04-23T11:06:04.886Z,9.10
2023-04-23T11:08:36.346Z,8.20
2023-04-23T11:11:09.485Z,8.60
2023-04-23T11:14:16.708Z,8.10
2023-04-23T11:16:45.558Z,8.20
2023-04-23T11:19:18.355Z,8.50
2023-04-23T11:22:13.157Z,8.90
2023-04-23T11:24:43.583Z,7.40
2023-04-23T11:27:17.095Z,8.50
2023-04-23T11:29:47.265Z,7.20
2023-04-23T11:32:18.925Z,8.00
2023-04-23T11:34:50.190Z,7.60
2023-04-23T11:37:19.202Z,9.20
2023-04-23T11:39:49.517Z,7.30
2023-04-23T11:42:20.488Z,9.70
2023-04-23T11:44:49.072Z,6.70
2023-04-23T11:47:18.907Z,9.20
2023-04-23T11:49:48.781Z,7.40
2023-04-23T11:52:17.235Z,12.70
2023-04-23T11:54:45.737Z,8.20
2023-04-23T11:57:14.893Z,10.20
2023-04-23T11:59:43.708Z,9.20
2023-04-23T12:02:12.868Z,6.80
2023-04-23T12:04:44.132Z,6.70
2023-04-23T12:07:23.443Z,8.00
2023-04-23T12:10:00.601Z,8.70
2023-04-23T12:12:38.349Z,7.60
2023-04-23T12:15:08.797Z,8.40
2023-04-23T12:17:37.401Z,7.70
2023-04-23T12:20:10.006Z,7.80
2023-04-23T12:22:38.456Z,8.00
2023-04-23T12:25:09.258Z,10.30
2023-04-23T12:27:42.889Z,8.50
2023-04-23T12:30:12.103Z,9.70
2023-04-23T12:32:41.831Z,12.30
2023-04-23T12:35:11.535Z,8.50
2023-04-23T12:37:39.922Z,9.10
2023-04-23T12:40:09.148Z,8.30
2023-04-23T12:42:37.724Z,8.50
2023-04-23T12:45:08.614Z,9.50
2023-04-23T12:47:37.332Z,8.90
2023-04-23T12:50:06.991Z,10.30
2023-04-23T12:52:35.401Z,8.40
2023-04-23T12:55:05.895Z,9.70
2023-04-23T12:57:34.861Z,11.20
2023-04-23T13:00:03.783Z,8.50
2023-04-23T13:02:32.611Z,17.60
2023-04-23T13:05:02.147Z,10.20
2023-04-23T13:07:30.878Z,9.30
2023-04-23T13:09:59.826Z,10.00
2023-04-23T13:12:28.311Z,8.80
2023-04-23T13:14:57.167Z,8.10
2023-04-23T13:17:26.682Z,8.30
2023-04-23T13:19:55.984Z,8.20
2023-04-23T13:22:28.633Z,7.60
2023-04-23T13:24:58.011Z,7.60
2023-04-23T13:27:29.355Z,8.00
2023-04-23T13:29:59.000Z,7.60
2023-04-23T13:32:32.234Z,8.00
2023-04-23T13:35:03.259Z,6.70
2023-04-23T13:37:32.119Z,7.60
2023-04-23T13:40:00.514Z,8.20
2023-04-23T13:42:28.989Z,7.10
2023-04-23T13:44:57.376Z,7.80
2023-04-23T13:47:27.690Z,8.10
2023-04-23T13:49:56.850Z,9.30
2023-04-23T13:52:25.249Z,10.50
2023-04-23T13:54:54.964Z,8.30
2023-04-23T13:57:24.163Z,8.40
2023-04-23T13:59:55.533Z,11.00
2023-04-23T14:02:24.476Z,8.30
2023-04-23T14:04:53.228Z,10.40
2023-04-23T14:07:21.673Z,7.40
2023-04-23T14:09:53.303Z,7.30
2023-04-23T14:12:21.757Z,7.40
2023-04-23T14:14:50.641Z,7.70
2023-04-23T14:17:19.045Z,9.70
2023-04-23T14:19:47.923Z,12.70
2023-04-23T14:22:16.422Z,8.10
2023-04-23T14:24:46.691Z,9.80
2023-04-23T14:27:15.583Z,10.60
2023-04-23T14:30:12.343Z,9.30
2023-04-23T14:32:40.845Z,6.90
2023-04-23T14:35:09.665Z,8.40
2023-04-23T14:37:38.218Z,9.30
2023-04-23T14:40:07.556Z,8.10
2023-04-23T14:42:36.172Z,7.80
2023-04-23T14:45:04.825Z,6.70
2023-04-23T14:47:33.341Z,8.20
2023-04-23T14:50:02.002Z,9.00
2023-04-23T14:52:31.762Z,8.30
2023-04-23T14:55:00.237Z,8.50
2023-04-23T14:57:28.726Z,7.60
2023-04-23T14:59:57.275Z,6.80
2023-04-23T15:02:25.884Z,7.40
2023-04-23T15:04:55.500Z,12.40
2023-04-23T15:07:23.946Z,10.90
2023-04-23T15:09:52.429Z,11.50
2023-04-23T15:12:51.104Z,8.30
2023-04-23T15:15:37.054Z,8.50
2023-04-23T15:18:14.393Z,8.90
2023-04-23T15:20:45.753Z,8.70
2023-04-23T15:23:14.223Z,12.60
2023-04-23T15:25:42.663Z,11.70
2023-04-23T15:28:11.242Z,11.10
2023-04-23T15:30:40.291Z,11.80
2023-04-23T15:33:08.682Z,8.50
2023-04-23T15:35:37.236Z,7.80
2023-04-23T15:38:05.728Z,9.40
2023-04-23T15:40:48.219Z,9.90
2023-04-23T15:43:17.602Z,10.00
2023-04-23T15:45:48.722Z,18.00
2023-04-23T15:48:17.239Z,13.20
2023-04-23T15:50:46.049Z,10.90
2023-04-23T15:53:14.586Z,10.00
2023-04-23T15:55:43.024Z,9.70
2023-04-23T15:58:11.459Z,11.30
2023-04-23T16:00:40.004Z,14.30
2023-04-23T16:03:08.560Z,11.50
2023-04-23T16:05:37.421Z,9.40
2023-04-23T16:08:06.149Z,10.10
2023-04-23T16:10:34.824Z,9.80
2023-04-23T16:13:03.524Z,12.70
2023-04-23T16:15:32.040Z,10.90
2023-04-23T16:18:00.706Z,11.50
2023-04-23T16:20:30.011Z,11.70
2023-04-23T16:22:58.534Z,10.40
2023-04-23T16:25:27.015Z,13.00
2023-04-23T16:27:56.858Z,16.70
2023-04-23T16:30:25.307Z,10.70
2023-04-23T16:32:53.962Z,9.80
2023-04-23T16:35:22.709Z,8.80
2023-04-23T16:37:51.324Z,8.40
2023-04-23T16:40:19.952Z,7.90
2023-04-23T16:42:49.171Z,9.20
2023-04-23T16:45:23.235Z,8.40
2023-04-23T16:47:51.869Z,15.90
2023-04-23T16:50:20.250Z,11.80
2023-04-23T16:52:48.709Z,10.40
2023-04-23T16:55:17.334Z,12.30
2023-04-23T16:57:46.008Z,17.10
2023-04-23T17:00:15.496Z,11.40
2023-04-23T17:02:44.046Z,15.60
2023-04-23T17:05:12.639Z,10.50
2023-04-23T17:07:44.132Z,9.60
2023-04-23T17:10:12.643Z,9.90
2023-04-23T17:12:41.030Z,14.30
2023-04-23T17:15:09.911Z,10.20
2023-04-23T17:17:38.845Z,10.00
2023-04-23T17:20:08.403Z,12.80
2023-04-23T17:22:36.793Z,9.10
2023-04-23T17:25:06.592Z,10.70
2023-04-23T17:27:35.019Z,10.60
2023-04-23T17:30:04.082Z,9.30
2023-04-23T17:32:32.605Z,8.60
2023-04-23T17:35:09.679Z,10.30
2023-04-23T17:37:39.483Z,10.10
2023-04-23T17:40:09.917Z,8.70
2023-04-23T17:42:38.327Z,10.10
2023-04-23T17:45:07.314Z,9.00
2023-04-23T17:47:36.734Z,9.90
2023-04-23T17:50:06.489Z,11.00
2023-04-23T17:52:35.084Z,10.00
2023-04-23T17:55:03.765Z,10.70
2023-04-23T17:57:32.220Z,9.80
2023-04-23T18:00:05.194Z,9.60
2023-04-23T18:02:40.748Z,10.00
2023-04-23T18:05:12.041Z,8.30
2023-04-23T18:07:41.601Z,8.20
2023-04-23T18:10:12.662Z,9.70
2023-04-23T18:12:41.258Z,10.20
2023-04-23T18:15:12.669Z,11.40
2023-04-23T18:17:41.128Z,9.70
2023-04-23T18:20:10.182Z,11.10
2023-04-23T18:22:38.764Z,16.30
2023-04-23T18:25:10.286Z,13.60
2023-04-23T18:27:39.216Z,8.80
2023-04-23T18:30:09.193Z,10.70
2023-04-23T18:32:43.219Z,12.70
2023-04-23T18:35:11.738Z,15.80
2023-04-23T18:38:07.985Z,9.00
2023-04-23T18:40:36.421Z,11.90
2023-04-23T18:43:04.858Z,11.70
2023-04-23T18:45:33.421Z,12.30
2023-04-23T18:48:33.672Z,9.10
2023-04-23T18:51:46.348Z,16.40
2023-04-23T18:54:15.783Z,9.00
2023-04-23T18:56:47.808Z,9.50
2023-04-23T18:59:16.213Z,11.30
2023-04-23T19:01:46.585Z,11.20
2023-04-23T19:04:15.494Z,16.70
2023-04-23T19:06:44.687Z,14.00
2023-04-23T19:09:13.067Z,12.60
2023-04-23T19:11:41.495Z,11.60
2023-04-23T19:14:09.863Z,11.90
2023-04-23T19:16:38.462Z,12.30
2023-04-23T19:19:06.939Z,12.20
2023-04-23T19:21:35.353Z,12.30
2023-04-23T19:24:04.231Z,12.70
2023-04-23T19:26:32.816Z,12.20
2023-04-23T19:29:01.367Z,17.70
2023-04-23T19:31:30.973Z,14.10
2023-04-23T19:33:59.539Z,14.60
2023-04-23T19:36:28.077Z,13.90
2023-04-23T19:38:57.295Z,14.20
2023-04-23T19:41:26.493Z,13.80
2023-04-23T19:43:54.921Z,14.90
2023-04-23T19:46:23.415Z,15.30
2023-04-23T19:48:51.881Z,13.20
2023-04-23T19:51:24.018Z,14.40
2023-04-23T19:53:54.177Z,15.30
2023-04-23T19:56:23.643Z,15.30
2023-04-23T19:58:52.210Z,11.80
2023-04-23T20:01:20.785Z,12.40
2023-04-23T20:03:51.093Z,12.90
2023-04-23T20:06:19.764Z,12.40
2023-04-23T20:09:06.808Z,12.50
2023-04-23T20:11:36.194Z,13.70
2023-04-23T20:14:04.702Z,13.70
2023-04-23T20:16:33.209Z,15.30
2023-04-23T20:19:02.184Z,14.20
2023-04-23T20:21:32.004Z,18.10
2023-04-23T20:24:00.455Z,16.20
2023-04-23T20:26:28.939Z,16.30
2023-04-23T20:28:57.348Z,15.30
2023-04-23T20:31:25.882Z,16.20
2023-04-23T20:33:54.391Z,14.50
2023-04-23T20:36:29.162Z,14.20
2023-04-23T20:39:37.657Z,13.40
2023-04-23T20:42:07.330Z,13.60
2023-04-23T20:44:36.537Z,15.90
2023-04-23T20:47:08.604Z,16.70
2023-04-23T20:49:36.920Z,16.10
2023-04-23T20:52:05.448Z,14.50
2023-04-23T20:54:35.111Z,16.20
2023-04-23T20:57:04.172Z,13.80
2023-04-23T20:59:32.584Z,14.30
2023-04-23T21:02:01.069Z,16.00
2023-04-23T21:04:29.720Z,16.40
2023-04-23T21:06:58.710Z,16.00
2023-04-23T21:09:27.088Z,15.80
2023-04-23T21:11:57.166Z,15.20
2023-04-23T21:14:25.755Z,14.90
2023-04-23T21:16:56.565Z,20.20
2023-04-23T21:19:24.931Z,19.70
2023-04-23T21:21:53.342Z,22.90
2023-04-23T21:24:22.352Z,22.60
2023-04-23T21:26:50.936Z,22.10
2023-04-23T21:29:19.297Z,20.90
2023-04-23T21:31:52.329Z,20.00
2023-04-23T21:34:21.750Z,19.20
2023-04-23T21:36:50.448Z,24.30
2023-04-23T21:39:18.861Z,25.00
2023-04-23T21:41:47.519Z,24.00
2023-04-23T21:44:17.101Z,21.00
2023-04-23T21:46:46.127Z,22.50
2023-04-23T21:49:14.519Z,21.70
2023-04-23T21:51:43.303Z,22.10
2023-04-23T21:54:11.762Z,20.20
2023-04-23T21:56:40.241Z,21.80
2023-04-23T21:59:08.707Z,20.60
2023-04-23T22:01:37.129Z,19.70
2023-04-23T22:04:05.693Z,23.10
2023-04-23T22:06:35.460Z,20.20
2023-04-23T22:09:03.923Z,18.80
2023-04-23T22:11:34.837Z,18.70
2023-04-23T22:14:03.325Z,20.80
2023-04-23T22:16:31.759Z,19.80
2023-04-23T22:19:00.775Z,19.40
2023-04-23T22:21:29.187Z,18.00
2023-04-23T22:23:57.604Z,19.80
2023-04-23T22:26:26.133Z,21.80
2023-04-23T22:28:54.946Z,19.00
2023-04-23T22:31:23.301Z,18.20
2023-04-23T22:33:51.810Z,19.50
2023-04-23T22:36:20.512Z,18.50
2023-04-23T22:38:48.928Z,18.40
2023-04-23T22:41:17.327Z,18.50
2023-04-23T22:43:46.668Z,21.00
2023-04-23T22:46:15.097Z,21.30
2023-04-23T22:48:44.973Z,19.10
2023-04-23T22:51:14.669Z,19.80
2023-04-23T22:53:42.974Z,18.50
2023-04-23T22:56:11.807Z,18.80
2023-04-23T22:58:40.535Z,20.50
2023-04-23T23:01:08.996Z,20.70
2023-04-23T23:03:37.499Z,18.60
2023-04-23T23:06:06.393Z,19.20
2023-04-23T23:08:34.842Z,19.20
2023-04-23T23:11:03.510Z,19.80
2023-04-23T23:13:32.509Z,18.80
2023-04-23T23:16:04.951Z,16.70
2023-04-23T23:18:33.475Z,16.50
2023-04-23T23:21:01.901Z,14.40
2023-04-23T23:23:30.786Z,16.90
2023-04-23T23:26:00.073Z,17.10
2023-04-23T23:28:28.942Z,14.40
2023-04-23T23:30:58.071Z,16.40
2023-04-23T23:33:27.445Z,15.20
2023-04-23T23:35:56.782Z,13.70
2023-04-23T23:38:25.573Z,16.20
2023-04-23T23:40:53.998Z,13.90
2023-04-23T23:43:22.385Z,16.80
2023-04-23T23:45:50.857Z,13.50
2023-04-23T23:48:19.412Z,13.40
2023-04-23T23:50:47.834Z,14.20
2023-04-23T23:53:16.166Z,14.30
2023-04-23T23:55:44.548Z,13.90
2023-04-23T23:58:13.001Z,17.70
